sensor_id;sensor_type;location;lat;lon;timestamp;P1;durP1;ratioP1;P2;durP2;ratioP2
70420;SDS011;57848;51.938;15.520;2022-12-18T00:00:33;26.33;;;10.03;;
70420;SDS011;57848;51.938;15.520;2022-12-18T00:03:05;28.50;;;9.75;;
70420;SDS011;57848;51.938;15.520;2022-12-18T00:05:31;33.23;;;10.10;;
70420;SDS011;57848;51.938;15.520;2022-12-18T00:07:56;26.20;;;10.10;;
70420;SDS011;57848;51.938;15.520;2022-12-18T00:10:22;24.67;;;8.57;;
70420;SDS011;57848;51.938;15.520;2022-12-18T00:12:47;25.30;;;9.30;;
70420;SDS011;57848;51.938;15.520;2022-12-18T00:15:12;26.60;;;9.67;;
70420;SDS011;57848;51.938;15.520;2022-12-18T00:17:38;29.50;;;9.87;;
70420;SDS011;57848;51.938;15.520;2022-12-18T00:20:03;24.47;;;8.77;;
70420;SDS011;57848;51.938;15.520;2022-12-18T00:22:29;30.85;;;9.32;;
70420;SDS011;57848;51.938;15.520;2022-12-18T00:24:54;28.60;;;10.10;;
70420;SDS011;57848;51.938;15.520;2022-12-18T00:27:20;28.97;;;9.40;;
70420;SDS011;57848;51.938;15.520;2022-12-18T00:29:45;33.83;;;10.97;;
70420;SDS011;57848;51.938;15.520;2022-12-18T00:32:10;27.87;;;10.10;;
70420;SDS011;57848;51.938;15.520;2022-12-18T00:34:36;35.83;;;10.50;;
70420;SDS011;57848;51.938;15.520;2022-12-18T00:37:01;23.80;;;10.20;;
70420;SDS011;57848;51.938;15.520;2022-12-18T00:39:27;32.33;;;11.03;;
70420;SDS011;57848;51.938;15.520;2022-12-18T00:41:52;32.08;;;11.15;;
70420;SDS011;57848;51.938;15.520;2022-12-18T00:44:36;28.37;;;9.57;;
70420;SDS011;57848;51.938;15.520;2022-12-18T00:47:01;29.23;;;11.38;;
70420;SDS011;57848;51.938;15.520;2022-12-18T00:49:27;26.97;;;8.97;;
70420;SDS011;57848;51.938;15.520;2022-12-18T00:51:53;26.30;;;10.18;;
70420;SDS011;57848;51.938;15.520;2022-12-18T00:54:19;25.77;;;9.67;;
70420;SDS011;57848;51.938;15.520;2022-12-18T00:56:44;25.57;;;9.90;;
70420;SDS011;57848;51.938;15.520;2022-12-18T00:59:10;22.70;;;9.30;;
70420;SDS011;57848;51.938;15.520;2022-12-18T01:01:37;27.70;;;9.57;;
70420;SDS011;57848;51.938;15.520;2022-12-18T01:04:03;22.95;;;8.98;;
70420;SDS011;57848;51.938;15.520;2022-12-18T01:06:29;27.37;;;10.40;;
70420;SDS011;57848;51.938;15.520;2022-12-18T01:08:55;28.60;;;10.40;;
70420;SDS011;57848;51.938;15.520;2022-12-18T01:11:20;24.00;;;8.77;;
70420;SDS011;57848;51.938;15.520;2022-12-18T01:13:47;27.00;;;9.48;;
70420;SDS011;57848;51.938;15.520;2022-12-18T01:16:13;32.00;;;11.07;;
70420;SDS011;57848;51.938;15.520;2022-12-18T01:18:40;27.50;;;10.50;;
70420;SDS011;57848;51.938;15.520;2022-12-18T01:21:06;26.00;;;10.65;;
70420;SDS011;57848;51.938;15.520;2022-12-18T01:23:36;24.40;;;9.50;;
70420;SDS011;57848;51.938;15.520;2022-12-18T01:26:13;27.08;;;9.35;;
70420;SDS011;57848;51.938;15.520;2022-12-18T01:28:40;25.92;;;9.68;;
70420;SDS011;57848;51.938;15.520;2022-12-18T01:31:19;27.38;;;9.68;;
70420;SDS011;57848;51.938;15.520;2022-12-18T01:33:47;25.33;;;9.20;;
70420;SDS011;57848;51.938;15.520;2022-12-18T01:36:17;24.70;;;10.15;;
70420;SDS011;57848;51.938;15.520;2022-12-18T01:38:45;23.00;;;8.40;;
70420;SDS011;57848;51.938;15.520;2022-12-18T01:41:11;20.23;;;7.60;;
70420;SDS011;57848;51.938;15.520;2022-12-18T01:44:46;20.37;;;8.20;;
70420;SDS011;57848;51.938;15.520;2022-12-18T01:46:49;21.70;;;8.25;;
70420;SDS011;57848;51.938;15.520;2022-12-18T01:49:14;22.57;;;8.37;;
70420;SDS011;57848;51.938;15.520;2022-12-18T01:51:40;22.13;;;8.47;;
70420;SDS011;57848;51.938;15.520;2022-12-18T01:54:05;23.30;;;8.17;;
70420;SDS011;57848;51.938;15.520;2022-12-18T01:56:30;21.97;;;8.80;;
70420;SDS011;57848;51.938;15.520;2022-12-18T01:59:03;21.47;;;8.57;;
70420;SDS011;57848;51.938;15.520;2022-12-18T02:01:31;20.88;;;8.60;;
70420;SDS011;57848;51.938;15.520;2022-12-18T02:06:54;24.30;;;8.40;;
70420;SDS011;57848;51.938;15.520;2022-12-18T02:09:34;22.10;;;7.78;;
70420;SDS011;57848;51.938;15.520;2022-12-18T02:12:19;20.73;;;8.63;;
70420;SDS011;57848;51.938;15.520;2022-12-18T02:17:22;23.25;;;8.38;;
70420;SDS011;57848;51.938;15.520;2022-12-18T02:20:05;23.63;;;8.25;;
70420;SDS011;57848;51.938;15.520;2022-12-18T02:28:34;21.50;;;8.35;;
70420;SDS011;57848;51.938;15.520;2022-12-18T02:31:23;21.27;;;7.78;;
70420;SDS011;57848;51.938;15.520;2022-12-18T02:33:53;21.27;;;7.50;;
70420;SDS011;57848;51.938;15.520;2022-12-18T02:36:21;21.45;;;7.40;;
70420;SDS011;57848;51.938;15.520;2022-12-18T02:38:47;18.40;;;7.07;;
70420;SDS011;57848;51.938;15.520;2022-12-18T02:41:15;22.15;;;7.60;;
70420;SDS011;57848;51.938;15.520;2022-12-18T02:43:49;21.23;;;7.93;;
70420;SDS011;57848;51.938;15.520;2022-12-18T02:46:24;19.70;;;7.40;;
70420;SDS011;57848;51.938;15.520;2022-12-18T02:48:52;18.13;;;7.75;;
70420;SDS011;57848;51.938;15.520;2022-12-18T02:51:29;19.33;;;6.93;;
70420;SDS011;57848;51.938;15.520;2022-12-18T02:54:08;19.83;;;6.82;;
70420;SDS011;57848;51.938;15.520;2022-12-18T02:57:00;22.40;;;6.97;;
70420;SDS011;57848;51.938;15.520;2022-12-18T03:02:32;20.80;;;8.48;;
70420;SDS011;57848;51.938;15.520;2022-12-18T03:05:19;22.77;;;7.47;;
70420;SDS011;57848;51.938;15.520;2022-12-18T03:10:35;24.85;;;7.90;;
70420;SDS011;57848;51.938;15.520;2022-12-18T03:13:13;21.08;;;7.90;;
70420;SDS011;57848;51.938;15.520;2022-12-18T03:15:46;23.63;;;7.93;;
70420;SDS011;57848;51.938;15.520;2022-12-18T03:18:23;20.67;;;6.80;;
70420;SDS011;57848;51.938;15.520;2022-12-18T03:20:55;19.52;;;7.38;;
70420;SDS011;57848;51.938;15.520;2022-12-18T03:23:26;22.58;;;8.30;;
70420;SDS011;57848;51.938;15.520;2022-12-18T03:25:55;19.50;;;7.28;;
70420;SDS011;57848;51.938;15.520;2022-12-18T03:28:25;22.83;;;7.38;;
70420;SDS011;57848;51.938;15.520;2022-12-18T03:30:58;21.90;;;7.97;;
70420;SDS011;57848;51.938;15.520;2022-12-18T03:33:28;21.00;;;6.93;;
70420;SDS011;57848;51.938;15.520;2022-12-18T03:35:59;18.75;;;6.88;;
70420;SDS011;57848;51.938;15.520;2022-12-18T03:38:26;21.02;;;7.63;;
70420;SDS011;57848;51.938;15.520;2022-12-18T03:40:56;19.52;;;6.75;;
70420;SDS011;57848;51.938;15.520;2022-12-18T03:43:51;18.07;;;6.83;;
70420;SDS011;57848;51.938;15.520;2022-12-18T03:46:28;21.00;;;6.78;;
70420;SDS011;57848;51.938;15.520;2022-12-18T03:49:08;19.73;;;7.78;;
70420;SDS011;57848;51.938;15.520;2022-12-18T03:51:48;21.35;;;7.53;;
70420;SDS011;57848;51.938;15.520;2022-12-18T03:54:19;21.55;;;8.00;;
70420;SDS011;57848;51.938;15.520;2022-12-18T03:56:55;21.67;;;7.90;;
70420;SDS011;57848;51.938;15.520;2022-12-18T03:59:24;23.15;;;8.65;;
70420;SDS011;57848;51.938;15.520;2022-12-18T04:01:52;20.58;;;8.07;;
70420;SDS011;57848;51.938;15.520;2022-12-18T04:04:23;26.30;;;8.40;;
70420;SDS011;57848;51.938;15.520;2022-12-18T04:06:50;27.33;;;9.38;;
70420;SDS011;57848;51.938;15.520;2022-12-18T04:09:18;22.93;;;8.90;;
70420;SDS011;57848;51.938;15.520;2022-12-18T04:11:46;26.10;;;8.45;;
70420;SDS011;57848;51.938;15.520;2022-12-18T04:14:13;27.88;;;8.70;;
70420;SDS011;57848;51.938;15.520;2022-12-18T04:16:39;22.90;;;8.90;;
70420;SDS011;57848;51.938;15.520;2022-12-18T04:19:08;27.03;;;9.50;;
70420;SDS011;57848;51.938;15.520;2022-12-18T04:21:38;32.53;;;11.43;;
70420;SDS011;57848;51.938;15.520;2022-12-18T04:24:04;32.17;;;10.68;;
70420;SDS011;57848;51.938;15.520;2022-12-18T04:26:32;31.65;;;11.02;;
70420;SDS011;57848;51.938;15.520;2022-12-18T04:29:26;31.88;;;10.63;;
70420;SDS011;57848;51.938;15.520;2022-12-18T04:31:52;32.83;;;13.07;;
70420;SDS011;57848;51.938;15.520;2022-12-18T04:34:18;31.45;;;11.88;;
70420;SDS011;57848;51.938;15.520;2022-12-18T04:36:48;37.72;;;12.65;;
70420;SDS011;57848;51.938;15.520;2022-12-18T04:39:17;33.20;;;11.97;;
70420;SDS011;57848;51.938;15.520;2022-12-18T04:41:44;35.25;;;11.32;;
70420;SDS011;57848;51.938;15.520;2022-12-18T04:44:11;35.85;;;12.85;;
70420;SDS011;57848;51.938;15.520;2022-12-18T04:46:36;32.17;;;12.30;;
70420;SDS011;57848;51.938;15.520;2022-12-18T04:49:02;36.50;;;12.87;;
70420;SDS011;57848;51.938;15.520;2022-12-18T04:51:27;34.30;;;12.48;;
70420;SDS011;57848;51.938;15.520;2022-12-18T04:53:53;33.43;;;11.33;;
70420;SDS011;57848;51.938;15.520;2022-12-18T04:56:18;24.38;;;9.48;;
70420;SDS011;57848;51.938;15.520;2022-12-18T04:58:44;31.87;;;11.10;;
70420;SDS011;57848;51.938;15.520;2022-12-18T05:01:10;37.37;;;12.67;;
70420;SDS011;57848;51.938;15.520;2022-12-18T05:03:37;40.90;;;13.07;;
70420;SDS011;57848;51.938;15.520;2022-12-18T05:06:03;38.33;;;12.13;;
70420;SDS011;57848;51.938;15.520;2022-12-18T05:08:30;40.67;;;14.15;;
70420;SDS011;57848;51.938;15.520;2022-12-18T05:11:02;48.17;;;14.80;;
70420;SDS011;57848;51.938;15.520;2022-12-18T05:13:30;52.78;;;17.77;;
70420;SDS011;57848;51.938;15.520;2022-12-18T05:15:56;39.03;;;13.25;;
70420;SDS011;57848;51.938;15.520;2022-12-18T05:18:22;25.70;;;10.27;;
70420;SDS011;57848;51.938;15.520;2022-12-18T05:20:49;30.35;;;9.35;;
70420;SDS011;57848;51.938;15.520;2022-12-18T05:23:15;24.65;;;9.35;;
70420;SDS011;57848;51.938;15.520;2022-12-18T05:25:40;27.30;;;9.47;;
70420;SDS011;57848;51.938;15.520;2022-12-18T05:28:06;27.73;;;10.30;;
70420;SDS011;57848;51.938;15.520;2022-12-18T05:30:31;25.20;;;8.63;;
70420;SDS011;57848;51.938;15.520;2022-12-18T05:32:57;31.95;;;9.10;;
70420;SDS011;57848;51.938;15.520;2022-12-18T05:35:22;25.47;;;9.87;;
70420;SDS011;57848;51.938;15.520;2022-12-18T05:37:47;25.93;;;9.23;;
70420;SDS011;57848;51.938;15.520;2022-12-18T05:40:13;28.57;;;9.73;;
70420;SDS011;57848;51.938;15.520;2022-12-18T05:42:38;25.07;;;9.13;;
70420;SDS011;57848;51.938;15.520;2022-12-18T05:45:04;25.60;;;9.10;;
70420;SDS011;57848;51.938;15.520;2022-12-18T05:47:30;24.58;;;8.20;;
70420;SDS011;57848;51.938;15.520;2022-12-18T05:49:56;27.97;;;9.17;;
70420;SDS011;57848;51.938;15.520;2022-12-18T05:52:22;23.33;;;9.80;;
70420;SDS011;57848;51.938;15.520;2022-12-18T05:54:47;24.47;;;8.13;;
70420;SDS011;57848;51.938;15.520;2022-12-18T05:57:13;21.00;;;8.00;;
70420;SDS011;57848;51.938;15.520;2022-12-18T05:59:38;20.20;;;7.47;;
70420;SDS011;57848;51.938;15.520;2022-12-18T06:02:04;25.27;;;7.70;;
70420;SDS011;57848;51.938;15.520;2022-12-18T06:04:32;26.15;;;8.32;;
70420;SDS011;57848;51.938;15.520;2022-12-18T06:06:58;27.83;;;9.50;;
70420;SDS011;57848;51.938;15.520;2022-12-18T06:09:24;26.27;;;8.00;;
70420;SDS011;57848;51.938;15.520;2022-12-18T06:11:51;23.13;;;8.67;;
70420;SDS011;57848;51.938;15.520;2022-12-18T06:14:16;28.52;;;9.00;;
70420;SDS011;57848;51.938;15.520;2022-12-18T06:16:42;20.73;;;8.10;;
70420;SDS011;57848;51.938;15.520;2022-12-18T06:19:07;25.42;;;8.93;;
70420;SDS011;57848;51.938;15.520;2022-12-18T06:21:38;24.52;;;8.27;;
70420;SDS011;57848;51.938;15.520;2022-12-18T06:24:04;24.63;;;8.50;;
70420;SDS011;57848;51.938;15.520;2022-12-18T06:26:29;25.33;;;9.20;;
70420;SDS011;57848;51.938;15.520;2022-12-18T06:28:55;27.77;;;8.83;;
70420;SDS011;57848;51.938;15.520;2022-12-18T06:31:21;21.92;;;7.45;;
70420;SDS011;57848;51.938;15.520;2022-12-18T06:33:46;21.70;;;7.50;;
70420;SDS011;57848;51.938;15.520;2022-12-18T06:36:12;26.42;;;7.93;;
70420;SDS011;57848;51.938;15.520;2022-12-18T06:38:39;26.27;;;8.65;;
70420;SDS011;57848;51.938;15.520;2022-12-18T06:41:14;19.00;;;7.87;;
70420;SDS011;57848;51.938;15.520;2022-12-18T06:43:43;24.38;;;8.77;;
70420;SDS011;57848;51.938;15.520;2022-12-18T06:46:09;23.85;;;7.75;;
70420;SDS011;57848;51.938;15.520;2022-12-18T06:48:35;24.80;;;7.70;;
70420;SDS011;57848;51.938;15.520;2022-12-18T06:51:00;28.15;;;10.73;;
70420;SDS011;57848;51.938;15.520;2022-12-18T06:53:26;21.93;;;8.13;;
70420;SDS011;57848;51.938;15.520;2022-12-18T06:55:52;24.63;;;8.18;;
70420;SDS011;57848;51.938;15.520;2022-12-18T06:58:17;22.00;;;8.33;;
70420;SDS011;57848;51.938;15.520;2022-12-18T07:00:43;33.93;;;9.60;;
70420;SDS011;57848;51.938;15.520;2022-12-18T07:03:08;32.87;;;10.37;;
70420;SDS011;57848;51.938;15.520;2022-12-18T07:05:34;30.80;;;9.40;;
70420;SDS011;57848;51.938;15.520;2022-12-18T07:07:59;16.37;;;6.23;;
70420;SDS011;57848;51.938;15.520;2022-12-18T07:10:25;23.27;;;7.53;;
70420;SDS011;57848;51.938;15.520;2022-12-18T07:12:51;24.75;;;8.13;;
70420;SDS011;57848;51.938;15.520;2022-12-18T07:15:16;23.97;;;8.60;;
70420;SDS011;57848;51.938;15.520;2022-12-18T07:17:41;23.00;;;6.80;;
70420;SDS011;57848;51.938;15.520;2022-12-18T07:20:07;25.02;;;8.23;;
70420;SDS011;57848;51.938;15.520;2022-12-18T07:22:33;24.43;;;8.43;;
70420;SDS011;57848;51.938;15.520;2022-12-18T07:24:59;22.90;;;7.65;;
70420;SDS011;57848;51.938;15.520;2022-12-18T07:27:24;24.63;;;7.57;;
70420;SDS011;57848;51.938;15.520;2022-12-18T07:29:49;25.90;;;7.73;;
70420;SDS011;57848;51.938;15.520;2022-12-18T07:32:15;24.63;;;7.70;;
70420;SDS011;57848;51.938;15.520;2022-12-18T07:34:40;25.42;;;8.40;;
70420;SDS011;57848;51.938;15.520;2022-12-18T07:37:06;27.60;;;10.23;;
70420;SDS011;57848;51.938;15.520;2022-12-18T07:39:31;26.13;;;8.73;;
70420;SDS011;57848;51.938;15.520;2022-12-18T07:41:57;20.20;;;7.83;;
70420;SDS011;57848;51.938;15.520;2022-12-18T07:44:41;27.02;;;8.90;;
70420;SDS011;57848;51.938;15.520;2022-12-18T07:47:07;25.48;;;8.90;;
70420;SDS011;57848;51.938;15.520;2022-12-18T07:49:32;25.03;;;7.97;;
70420;SDS011;57848;51.938;15.520;2022-12-18T07:51:58;22.63;;;8.33;;
70420;SDS011;57848;51.938;15.520;2022-12-18T07:54:24;23.30;;;7.97;;
70420;SDS011;57848;51.938;15.520;2022-12-18T07:56:50;25.33;;;9.30;;
70420;SDS011;57848;51.938;15.520;2022-12-18T07:59:16;29.58;;;9.30;;
70420;SDS011;57848;51.938;15.520;2022-12-18T08:01:42;23.93;;;7.03;;
70420;SDS011;57848;51.938;15.520;2022-12-18T08:04:07;18.70;;;7.37;;
70420;SDS011;57848;51.938;15.520;2022-12-18T08:06:32;24.65;;;7.55;;
70420;SDS011;57848;51.938;15.520;2022-12-18T08:08:58;29.40;;;8.93;;
70420;SDS011;57848;51.938;15.520;2022-12-18T08:11:24;32.03;;;9.07;;
70420;SDS011;57848;51.938;15.520;2022-12-18T08:13:51;30.48;;;8.98;;
70420;SDS011;57848;51.938;15.520;2022-12-18T08:16:17;28.50;;;9.07;;
70420;SDS011;57848;51.938;15.520;2022-12-18T08:18:43;26.95;;;9.80;;
70420;SDS011;57848;51.938;15.520;2022-12-18T08:23:35;26.55;;;8.45;;
70420;SDS011;57848;51.938;15.520;2022-12-18T08:26:02;32.35;;;9.00;;
70420;SDS011;57848;51.938;15.520;2022-12-18T08:28:27;24.97;;;8.93;;
70420;SDS011;57848;51.938;15.520;2022-12-18T08:30:53;25.17;;;9.20;;
70420;SDS011;57848;51.938;15.520;2022-12-18T08:33:18;27.70;;;8.37;;
70420;SDS011;57848;51.938;15.520;2022-12-18T08:35:44;28.17;;;10.17;;
70420;SDS011;57848;51.938;15.520;2022-12-18T08:38:09;25.40;;;8.63;;
70420;SDS011;57848;51.938;15.520;2022-12-18T08:40:34;29.73;;;9.07;;
70420;SDS011;57848;51.938;15.520;2022-12-18T08:43:00;27.83;;;9.85;;
70420;SDS011;57848;51.938;15.520;2022-12-18T08:45:44;29.33;;;9.47;;
70420;SDS011;57848;51.938;15.520;2022-12-18T08:48:09;23.08;;;7.90;;
70420;SDS011;57848;51.938;15.520;2022-12-18T08:50:35;26.80;;;9.17;;
70420;SDS011;57848;51.938;15.520;2022-12-18T08:53:00;29.57;;;10.20;;
70420;SDS011;57848;51.938;15.520;2022-12-18T08:55:26;33.20;;;10.02;;
70420;SDS011;57848;51.938;15.520;2022-12-18T08:57:51;26.43;;;9.27;;
70420;SDS011;57848;51.938;15.520;2022-12-18T09:00:17;31.73;;;10.60;;
70420;SDS011;57848;51.938;15.520;2022-12-18T09:02:42;30.40;;;11.03;;
70420;SDS011;57848;51.938;15.520;2022-12-18T09:05:08;33.75;;;10.57;;
70420;SDS011;57848;51.938;15.520;2022-12-18T09:07:33;32.23;;;11.30;;
70420;SDS011;57848;51.938;15.520;2022-12-18T09:09:59;39.08;;;12.80;;
70420;SDS011;57848;51.938;15.520;2022-12-18T09:12:24;28.77;;;11.53;;
70420;SDS011;57848;51.938;15.520;2022-12-18T09:14:50;36.83;;;10.83;;
70420;SDS011;57848;51.938;15.520;2022-12-18T09:17:16;41.70;;;12.70;;
70420;SDS011;57848;51.938;15.520;2022-12-18T09:19:41;43.13;;;14.15;;
70420;SDS011;57848;51.938;15.520;2022-12-18T09:22:06;35.90;;;13.67;;
70420;SDS011;57848;51.938;15.520;2022-12-18T09:24:32;44.97;;;16.47;;
70420;SDS011;57848;51.938;15.520;2022-12-18T09:26:57;34.20;;;11.80;;
70420;SDS011;57848;51.938;15.520;2022-12-18T09:29:23;33.40;;;10.82;;
70420;SDS011;57848;51.938;15.520;2022-12-18T09:31:49;29.52;;;10.25;;
70420;SDS011;57848;51.938;15.520;2022-12-18T09:34:15;34.67;;;12.17;;
70420;SDS011;57848;51.938;15.520;2022-12-18T09:36:40;33.05;;;12.10;;
70420;SDS011;57848;51.938;15.520;2022-12-18T09:39:06;31.37;;;11.30;;
70420;SDS011;57848;51.938;15.520;2022-12-18T09:41:33;29.33;;;10.97;;
70420;SDS011;57848;51.938;15.520;2022-12-18T09:44:27;30.15;;;10.75;;
70420;SDS011;57848;51.938;15.520;2022-12-18T09:47:19;36.83;;;11.65;;
70420;SDS011;57848;51.938;15.520;2022-12-18T09:50:00;31.13;;;10.65;;
70420;SDS011;57848;51.938;15.520;2022-12-18T09:52:29;30.47;;;10.87;;
70420;SDS011;57848;51.938;15.520;2022-12-18T09:54:58;40.97;;;11.52;;
70420;SDS011;57848;51.938;15.520;2022-12-18T09:57:28;33.88;;;11.18;;
70420;SDS011;57848;51.938;15.520;2022-12-18T10:00:03;30.70;;;10.27;;
70420;SDS011;57848;51.938;15.520;2022-12-18T10:02:36;29.83;;;8.60;;
70420;SDS011;57848;51.938;15.520;2022-12-18T10:05:04;26.57;;;8.80;;
70420;SDS011;57848;51.938;15.520;2022-12-18T10:07:47;29.92;;;9.35;;
70420;SDS011;57848;51.938;15.520;2022-12-18T10:18:39;28.35;;;10.73;;
70420;SDS011;57848;51.938;15.520;2022-12-18T10:21:13;32.28;;;11.15;;
70420;SDS011;57848;51.938;15.520;2022-12-18T10:26:33;35.30;;;11.70;;
70420;SDS011;57848;51.938;15.520;2022-12-18T10:28:59;32.88;;;10.75;;
70420;SDS011;57848;51.938;15.520;2022-12-18T10:31:25;34.30;;;12.57;;
70420;SDS011;57848;51.938;15.520;2022-12-18T10:33:51;34.27;;;12.53;;
70420;SDS011;57848;51.938;15.520;2022-12-18T10:36:19;31.83;;;10.77;;
70420;SDS011;57848;51.938;15.520;2022-12-18T10:38:45;31.08;;;11.90;;
70420;SDS011;57848;51.938;15.520;2022-12-18T10:44:11;39.15;;;13.48;;
70420;SDS011;57848;51.938;15.520;2022-12-18T10:46:46;34.17;;;12.27;;
70420;SDS011;57848;51.938;15.520;2022-12-18T10:49:18;35.42;;;11.95;;
70420;SDS011;57848;51.938;15.520;2022-12-18T10:52:11;40.08;;;13.43;;
70420;SDS011;57848;51.938;15.520;2022-12-18T10:54:45;37.95;;;13.27;;
70420;SDS011;57848;51.938;15.520;2022-12-18T10:57:14;33.47;;;12.95;;
70420;SDS011;57848;51.938;15.520;2022-12-18T10:59:55;34.33;;;13.20;;
70420;SDS011;57848;51.938;15.520;2022-12-18T11:02:26;39.85;;;12.27;;
70420;SDS011;57848;51.938;15.520;2022-12-18T11:05:02;37.03;;;12.05;;
70420;SDS011;57848;51.938;15.520;2022-12-18T11:07:50;33.40;;;12.75;;
70420;SDS011;57848;51.938;15.520;2022-12-18T11:10:17;33.67;;;12.30;;
70420;SDS011;57848;51.938;15.520;2022-12-18T11:12:43;33.77;;;11.87;;
70420;SDS011;57848;51.938;15.520;2022-12-18T11:15:42;34.00;;;12.48;;
70420;SDS011;57848;51.938;15.520;2022-12-18T11:18:00;33.80;;;12.27;;
70420;SDS011;57848;51.938;15.520;2022-12-18T11:22:59;35.20;;;11.95;;
70420;SDS011;57848;51.938;15.520;2022-12-18T11:25:30;33.90;;;12.23;;
70420;SDS011;57848;51.938;15.520;2022-12-18T11:28:00;30.25;;;11.80;;
70420;SDS011;57848;51.938;15.520;2022-12-18T11:30:45;30.77;;;10.73;;
70420;SDS011;57848;51.938;15.520;2022-12-18T11:33:18;29.33;;;10.80;;
70420;SDS011;57848;51.938;15.520;2022-12-18T11:35:50;29.35;;;11.50;;
70420;SDS011;57848;51.938;15.520;2022-12-18T11:46:25;34.88;;;11.23;;
70420;SDS011;57848;51.938;15.520;2022-12-18T11:49:06;35.08;;;12.48;;
70420;SDS011;57848;51.938;15.520;2022-12-18T11:51:41;40.90;;;14.68;;
70420;SDS011;57848;51.938;15.520;2022-12-18T11:54:14;34.75;;;12.93;;
70420;SDS011;57848;51.938;15.520;2022-12-18T12:05:20;31.55;;;11.38;;
70420;SDS011;57848;51.938;15.520;2022-12-18T12:21:18;33.10;;;12.35;;
70420;SDS011;57848;51.938;15.520;2022-12-18T12:24:14;35.57;;;13.23;;
70420;SDS011;57848;51.938;15.520;2022-12-18T12:32:22;35.97;;;14.00;;
70420;SDS011;57848;51.938;15.520;2022-12-18T12:38:05;34.67;;;14.90;;
70420;SDS011;57848;51.938;15.520;2022-12-18T12:40:23;33.30;;;12.88;;
70420;SDS011;57848;51.938;15.520;2022-12-18T12:42:54;34.90;;;12.68;;
70420;SDS011;57848;51.938;15.520;2022-12-18T12:45:55;35.28;;;13.52;;
70420;SDS011;57848;51.938;15.520;2022-12-18T12:51:11;32.63;;;12.63;;
70420;SDS011;57848;51.938;15.520;2022-12-18T12:53:40;34.65;;;13.63;;
70420;SDS011;57848;51.938;15.520;2022-12-18T12:56:06;31.02;;;12.43;;
70420;SDS011;57848;51.938;15.520;2022-12-18T13:01:25;32.57;;;13.00;;
70420;SDS011;57848;51.938;15.520;2022-12-18T13:09:00;39.50;;;13.98;;
70420;SDS011;57848;51.938;15.520;2022-12-18T13:11:31;37.67;;;13.38;;
70420;SDS011;57848;51.938;15.520;2022-12-18T13:14:37;37.30;;;13.60;;
70420;SDS011;57848;51.938;15.520;2022-12-18T13:19:48;38.75;;;14.13;;
70420;SDS011;57848;51.938;15.520;2022-12-18T13:22:36;38.25;;;14.32;;
70420;SDS011;57848;51.938;15.520;2022-12-18T13:25:04;37.22;;;13.55;;
70420;SDS011;57848;51.938;15.520;2022-12-18T13:28:10;35.60;;;13.47;;
70420;SDS011;57848;51.938;15.520;2022-12-18T13:30:41;36.08;;;13.73;;
70420;SDS011;57848;51.938;15.520;2022-12-18T13:35:39;37.95;;;15.00;;
70420;SDS011;57848;51.938;15.520;2022-12-18T13:38:20;38.85;;;14.85;;
70420;SDS011;57848;51.938;15.520;2022-12-18T13:40:58;42.20;;;16.13;;
70420;SDS011;57848;51.938;15.520;2022-12-18T13:43:29;43.92;;;15.85;;
70420;SDS011;57848;51.938;15.520;2022-12-18T13:49:02;41.08;;;16.17;;
70420;SDS011;57848;51.938;15.520;2022-12-18T13:51:32;41.92;;;16.55;;
70420;SDS011;57848;51.938;15.520;2022-12-18T13:53:59;42.17;;;17.43;;
70420;SDS011;57848;51.938;15.520;2022-12-18T13:56:28;42.13;;;16.02;;
70420;SDS011;57848;51.938;15.520;2022-12-18T14:01:43;44.28;;;17.42;;
70420;SDS011;57848;51.938;15.520;2022-12-18T14:04:23;41.28;;;16.65;;
70420;SDS011;57848;51.938;15.520;2022-12-18T14:06:53;42.73;;;16.47;;
70420;SDS011;57848;51.938;15.520;2022-12-18T14:09:26;46.08;;;15.57;;
70420;SDS011;57848;51.938;15.520;2022-12-18T14:11:55;53.58;;;18.25;;
70420;SDS011;57848;51.938;15.520;2022-12-18T14:14:42;51.92;;;17.95;;
70420;SDS011;57848;51.938;15.520;2022-12-18T14:17:10;47.47;;;16.50;;
70420;SDS011;57848;51.938;15.520;2022-12-18T14:19:37;47.60;;;18.27;;
70420;SDS011;57848;51.938;15.520;2022-12-18T14:22:11;52.75;;;18.85;;
70420;SDS011;57848;51.938;15.520;2022-12-18T14:25:10;53.35;;;19.40;;
70420;SDS011;57848;51.938;15.520;2022-12-18T14:27:49;75.13;;;26.63;;
70420;SDS011;57848;51.938;15.520;2022-12-18T14:30:24;66.20;;;25.90;;
70420;SDS011;57848;51.938;15.520;2022-12-18T14:36:04;57.33;;;20.63;;
70420;SDS011;57848;51.938;15.520;2022-12-18T14:39:11;51.97;;;20.77;;
70420;SDS011;57848;51.938;15.520;2022-12-18T14:41:42;45.45;;;19.67;;
70420;SDS011;57848;51.938;15.520;2022-12-18T14:44:10;49.67;;;19.90;;
70420;SDS011;57848;51.938;15.520;2022-12-18T14:49:29;58.72;;;21.55;;
70420;SDS011;57848;51.938;15.520;2022-12-18T14:52:24;52.08;;;22.25;;
70420;SDS011;57848;51.938;15.520;2022-12-18T14:54:54;53.63;;;20.07;;
70420;SDS011;57848;51.938;15.520;2022-12-18T14:57:23;57.80;;;21.50;;
70420;SDS011;57848;51.938;15.520;2022-12-18T14:59:51;48.60;;;19.77;;
70420;SDS011;57848;51.938;15.520;2022-12-18T15:02:24;57.95;;;22.15;;
70420;SDS011;57848;51.938;15.520;2022-12-18T15:05:02;61.42;;;21.05;;
70420;SDS011;57848;51.938;15.520;2022-12-18T15:07:49;63.70;;;25.75;;
70420;SDS011;57848;51.938;15.520;2022-12-18T15:10:20;62.20;;;25.05;;
70420;SDS011;57848;51.938;15.520;2022-12-18T15:13:06;65.03;;;22.77;;
70420;SDS011;57848;51.938;15.520;2022-12-18T15:17:59;54.53;;;20.80;;
70420;SDS011;57848;51.938;15.520;2022-12-18T15:20:25;56.08;;;21.83;;
70420;SDS011;57848;51.938;15.520;2022-12-18T15:22:51;63.22;;;21.25;;
70420;SDS011;57848;51.938;15.520;2022-12-18T15:27:56;55.15;;;21.13;;
70420;SDS011;57848;51.938;15.520;2022-12-18T15:30:22;52.70;;;20.17;;
70420;SDS011;57848;51.938;15.520;2022-12-18T15:32:50;57.17;;;21.10;;
70420;SDS011;57848;51.938;15.520;2022-12-18T15:35:24;50.28;;;20.80;;
70420;SDS011;57848;51.938;15.520;2022-12-18T15:37:50;51.10;;;17.48;;
70420;SDS011;57848;51.938;15.520;2022-12-18T15:40:18;64.82;;;21.48;;
70420;SDS011;57848;51.938;15.520;2022-12-18T15:42:46;51.30;;;21.27;;
70420;SDS011;57848;51.938;15.520;2022-12-18T15:45:31;59.90;;;19.35;;
70420;SDS011;57848;51.938;15.520;2022-12-18T15:47:57;56.55;;;20.63;;
70420;SDS011;57848;51.938;15.520;2022-12-18T15:50:22;59.10;;;21.67;;
70420;SDS011;57848;51.938;15.520;2022-12-18T15:52:48;63.27;;;21.70;;
70420;SDS011;57848;51.938;15.520;2022-12-18T15:55:16;58.97;;;22.77;;
70420;SDS011;57848;51.938;15.520;2022-12-18T15:58:02;57.13;;;20.10;;
70420;SDS011;57848;51.938;15.520;2022-12-18T16:00:28;62.83;;;21.00;;
70420;SDS011;57848;51.938;15.520;2022-12-18T16:02:54;60.30;;;21.00;;
70420;SDS011;57848;51.938;15.520;2022-12-18T16:05:20;62.40;;;21.67;;
70420;SDS011;57848;51.938;15.520;2022-12-18T16:07:47;68.57;;;22.55;;
70420;SDS011;57848;51.938;15.520;2022-12-18T16:10:12;69.85;;;24.15;;
70420;SDS011;57848;51.938;15.520;2022-12-18T16:12:38;67.60;;;24.27;;
70420;SDS011;57848;51.938;15.520;2022-12-18T16:15:04;62.85;;;22.30;;
70420;SDS011;57848;51.938;15.520;2022-12-18T16:17:30;60.70;;;22.55;;
70420;SDS011;57848;51.938;15.520;2022-12-18T16:19:56;65.33;;;20.83;;